createdAt,value
2018-08-10T00:03:31.657Z,100879.65
2018-08-10T00:08:43.470Z,100886.27
2018-08-10T00:13:59.195Z,100893.78
2018-08-10T00:19:29.513Z,100902.20
2018-08-10T00:24:43.816Z,100894.42
2018-08-10T00:29:56.013Z,100903.78
2018-08-10T00:35:10.311Z,100914.19
2018-08-10T00:40:20.600Z,100922.13
2018-08-10T00:45:35.065Z,100926.89
2018-08-10T00:51:07.288Z,100933.75
2018-08-10T00:56:17.033Z,100946.91
2018-08-10T01:01:33.173Z,100956.42
2018-08-10T01:06:48.657Z,100954.53
2018-08-10T01:12:01.232Z,100952.34
2018-08-10T01:17:14.683Z,100963.34
2018-08-10T01:22:23.622Z,100974.12
2018-08-10T01:27:39.736Z,100972.52
2018-08-10T01:32:51.077Z,100978.25
2018-08-10T01:38:03.698Z,100985.13
2018-08-10T01:43:14.436Z,100990.02
2018-08-10T01:48:24.226Z,100987.09
2018-08-10T01:53:37.488Z,100984.12
2018-08-10T01:58:54.942Z,100992.84
2018-08-10T02:04:10.297Z,101009.61
2018-08-10T02:09:27.848Z,101021.05
2018-08-10T02:14:40.745Z,101038.47
2018-08-10T02:19:54.620Z,101046.93
2018-08-10T02:25:08.441Z,101053.76
2018-08-10T02:30:20.026Z,101051.70
2018-08-10T02:35:35.257Z,101043.16
2018-08-10T02:40:52.704Z,101044.52
2018-08-10T02:46:08.404Z,101040.83
2018-08-10T02:51:21.482Z,101048.14
2018-08-10T02:56:35.162Z,101057.66
2018-08-10T03:01:50.107Z,101067.19
2018-08-10T03:07:04.989Z,101069.52
2018-08-10T03:12:14.714Z,101085.61
2018-08-10T03:17:23.686Z,101079.90
2018-08-10T03:22:32.679Z,101097.67
2018-08-10T03:27:52.080Z,101102.86
2018-08-10T03:33:06.361Z,101112.86
2018-08-10T03:38:20.557Z,101130.48
2018-08-10T03:43:36.325Z,101127.17
2018-08-10T03:48:49.159Z,101131.63
2018-08-10T03:54:05.495Z,101148.56
2018-08-10T03:59:44.732Z,101161.00
2018-08-10T04:05:04.268Z,101162.50
2018-08-10T04:10:13.753Z,101178.56
2018-08-10T04:15:22.991Z,101187.31
2018-08-10T04:20:33.161Z,101186.69
2018-08-10T04:25:42.679Z,101204.57
2018-08-10T04:30:51.938Z,101213.49
2018-08-10T04:36:01.958Z,101218.34
2018-08-10T04:41:10.674Z,101238.06
2018-08-10T04:46:19.865Z,101247.65
2018-08-10T04:51:28.919Z,101261.56
2018-08-10T04:56:39.148Z,101278.13
2018-08-10T05:01:47.975Z,101291.09
2018-08-10T05:06:57.382Z,101292.24
2018-08-10T05:12:06.416Z,101303.16
2018-08-10T05:17:15.561Z,101322.38
2018-08-10T05:22:25.400Z,101340.45
2018-08-10T05:27:35.365Z,101352.52
2018-08-10T05:32:45.015Z,101368.75
2018-08-10T05:37:54.052Z,101369.16
2018-08-10T05:43:03.144Z,101382.77
2018-08-10T05:48:11.753Z,101389.47
2018-08-10T05:53:20.919Z,101408.66
2018-08-10T05:58:30.029Z,101424.77
2018-08-10T06:03:39.262Z,101448.00
2018-08-10T06:08:48.277Z,101436.05
2018-08-10T06:13:57.123Z,101446.47
2018-08-10T06:19:06.053Z,101459.92
2018-08-10T06:24:15.070Z,101480.63
2018-08-10T06:29:24.337Z,101483.10
2018-08-10T06:34:32.961Z,101504.09
2018-08-10T06:39:41.867Z,101517.61
2018-08-10T06:44:50.948Z,101517.75
2018-08-10T06:50:00.103Z,101536.48
2018-08-10T06:55:08.839Z,101547.66
2018-08-10T07:00:17.687Z,101578.80
2018-08-10T07:05:26.970Z,101573.22
2018-08-10T07:10:35.829Z,101570.62
2018-08-10T07:15:44.786Z,101574.55
2018-08-10T07:20:54.873Z,101578.12
2018-08-10T07:26:04.064Z,101589.13
2018-08-10T07:31:13.185Z,101601.88
2018-08-10T07:36:24.332Z,101622.20
2018-08-10T07:41:33.307Z,101621.61
2018-08-10T07:46:42.542Z,101627.06
2018-08-10T07:51:51.623Z,101629.92
2018-08-10T07:57:00.591Z,101627.19
2018-08-10T08:02:09.689Z,101639.32
2018-08-10T08:07:18.929Z,101644.88
2018-08-10T08:12:27.975Z,101654.25
2018-08-10T08:17:36.996Z,101668.63
2018-08-10T08:22:46.147Z,101673.95
2018-08-10T08:27:55.220Z,101669.46
2018-08-10T08:33:04.299Z,101672.86
2018-08-10T08:39:24.608Z,101674.72
2018-08-10T08:44:49.515Z,101686.00
2018-08-10T08:49:58.974Z,101719.13
2018-08-10T08:55:27.869Z,101715.49
2018-08-10T09:00:37.507Z,101713.02
2018-08-10T09:05:46.851Z,101707.06
2018-08-10T09:10:56.611Z,101707.38
2018-08-10T09:16:06.243Z,101710.07
2018-08-10T09:21:15.253Z,101720.59
2018-08-10T09:26:24.273Z,101721.86
2018-08-10T09:31:33.300Z,101736.70
2018-08-10T09:36:42.149Z,101726.98
2018-08-10T09:41:51.271Z,101718.41
2018-08-10T09:47:00.382Z,101722.87
2018-08-10T09:52:09.474Z,101734.94
2018-08-10T09:57:18.918Z,101742.73
2018-08-10T10:02:28.151Z,101741.95
2018-08-10T10:07:37.146Z,101746.50
2018-08-10T10:12:46.223Z,101739.56
2018-08-10T10:17:55.299Z,101750.30
2018-08-10T10:23:04.411Z,101755.28
2018-08-10T10:28:13.329Z,101745.20
2018-08-10T10:33:22.419Z,101753.98
2018-08-10T10:38:31.117Z,101760.73
2018-08-10T10:43:40.254Z,101753.64
2018-08-10T10:48:49.796Z,101761.25
2018-08-10T10:53:59.218Z,101760.98
2018-08-10T10:59:09.003Z,101748.11
2018-08-10T11:04:18.885Z,101748.61
2018-08-10T11:09:27.553Z,101764.40
2018-08-10T11:14:36.442Z,101769.30
2018-08-10T11:19:46.240Z,101770.27
2018-08-10T11:24:54.996Z,101782.90
2018-08-10T11:30:05.292Z,101783.87
2018-08-10T11:35:14.844Z,101773.68
2018-08-10T11:40:24.197Z,101781.76
2018-08-10T11:45:33.232Z,101763.72
2018-08-10T11:50:42.753Z,101789.09
2018-08-10T11:55:51.639Z,101795.26
2018-08-10T12:01:01.197Z,101801.30
2018-08-10T12:06:11.323Z,101791.30
2018-08-10T12:11:20.390Z,101804.48
2018-08-10T12:16:29.147Z,101796.17
2018-08-10T12:21:38.466Z,101789.09
2018-08-10T12:26:47.397Z,101784.49
2018-08-10T12:31:58.195Z,101796.14
2018-08-10T12:37:07.742Z,101789.65
2018-08-10T12:42:17.180Z,101793.59
2018-08-10T12:47:26.814Z,101796.63
2018-08-10T12:52:36.366Z,101786.52
2018-08-10T12:57:45.383Z,101794.83
2018-08-10T13:02:54.546Z,101797.33
2018-08-10T13:08:03.960Z,101814.91
2018-08-10T13:13:13.290Z,101805.66
2018-08-10T13:18:23.659Z,101812.05
2018-08-10T13:23:33.464Z,101807.19
2018-08-10T13:28:42.151Z,101809.64
2018-08-10T13:33:53.175Z,101801.27
2018-08-10T13:39:02.283Z,101805.58
2018-08-10T13:44:17.827Z,101806.54
2018-08-10T13:49:27.007Z,101810.04
2018-08-10T13:54:36.456Z,101800.73
2018-08-10T13:59:46.379Z,101801.16
2018-08-10T14:04:55.291Z,101799.39
2018-08-10T14:10:04.839Z,101814.05
2018-08-10T14:15:13.768Z,101801.88
2018-08-10T14:20:23.408Z,101807.93
2018-08-10T14:25:32.508Z,101809.97
2018-08-10T14:30:41.776Z,101808.33
2018-08-10T14:35:50.832Z,101804.59
2018-08-10T14:40:59.850Z,101806.80
2018-08-10T14:46:09.099Z,101801.86
2018-08-10T14:51:18.153Z,101802.27
2018-08-10T14:56:27.071Z,101791.52
2018-08-10T15:01:36.009Z,101779.31
2018-08-10T15:06:44.986Z,101786.72
2018-08-10T15:11:54.544Z,101790.47
2018-08-10T15:17:03.941Z,101796.88
2018-08-10T15:22:28.755Z,101789.26
2018-08-10T15:27:54.859Z,101789.85
2018-08-10T15:33:22.593Z,101782.20
2018-08-10T15:38:32.728Z,101782.91
2018-08-10T15:43:42.241Z,101776.94
2018-08-10T15:48:52.475Z,101774.97
2018-08-10T15:54:01.788Z,101783.55
2018-08-10T15:59:10.811Z,101768.39
2018-08-10T16:04:20.194Z,101763.23
2018-08-10T16:09:29.192Z,101772.63
2018-08-10T16:14:38.330Z,101769.15
2018-08-10T16:19:47.448Z,101772.80
2018-08-10T16:24:56.848Z,101767.83
2018-08-10T16:30:07.202Z,101750.36
2018-08-10T16:35:16.144Z,101752.84
2018-08-10T16:40:25.411Z,101750.06
2018-08-10T16:45:34.884Z,101751.28
2018-08-10T16:50:44.518Z,101749.06
2018-08-10T16:55:53.404Z,101746.83
2018-08-10T17:01:02.438Z,101737.85
2018-08-10T17:06:11.125Z,101744.15
2018-08-10T17:11:20.254Z,101745.27
2018-08-10T17:16:29.011Z,101742.95
2018-08-10T17:21:37.865Z,101745.42
2018-08-10T17:26:46.829Z,101750.66
2018-08-10T17:31:56.978Z,101757.05
2018-08-10T17:37:06.049Z,101748.48
2018-08-10T17:42:15.115Z,101752.83
2018-08-10T17:47:24.594Z,101755.33
2018-08-10T17:52:33.478Z,101753.82
2018-08-10T17:57:42.666Z,101754.37
2018-08-10T18:02:51.767Z,101763.64
2018-08-10T18:08:00.732Z,101755.23
2018-08-10T18:13:10.144Z,101763.92
2018-08-10T18:18:18.961Z,101771.61
2018-08-10T18:23:28.268Z,101771.84
2018-08-10T18:28:37.972Z,101770.67
2018-08-10T18:33:46.744Z,101781.87
2018-08-10T18:38:55.888Z,101790.38
2018-08-10T18:44:05.115Z,101790.50
2018-08-10T18:49:14.172Z,101793.91
2018-08-10T18:54:23.444Z,101785.35
2018-08-10T18:59:32.617Z,101800.26
2018-08-10T19:04:41.772Z,101803.20
2018-08-10T19:09:51.438Z,101802.38
2018-08-10T19:15:01.218Z,101809.91
2018-08-10T19:20:11.509Z,101811.56
2018-08-10T19:25:21.527Z,101811.12
2018-08-10T19:30:31.468Z,101807.67
2018-08-10T19:35:41.628Z,101804.13
2018-08-10T19:40:51.816Z,101805.58
2018-08-10T19:46:01.021Z,101804.64
2018-08-10T19:51:10.542Z,101807.56
2018-08-10T19:56:23.608Z,101806.53
2018-08-10T20:01:32.281Z,101801.06
2018-08-10T20:06:41.947Z,101806.55
2018-08-10T20:11:51.720Z,101803.42
2018-08-10T20:17:07.801Z,101802.97
2018-08-10T20:22:17.035Z,101803.88
2018-08-10T20:27:26.879Z,101803.38
2018-08-10T20:32:36.254Z,101803.23
2018-08-10T20:37:45.947Z,101804.76
2018-08-10T20:42:54.887Z,101815.88
2018-08-10T20:48:04.504Z,101810.78
2018-08-10T20:53:13.505Z,101807.75
2018-08-10T20:58:23.194Z,101810.45
2018-08-10T21:03:31.972Z,101807.25
2018-08-10T21:08:41.116Z,101804.36
2018-08-10T21:13:51.218Z,101804.86
2018-08-10T21:19:00.526Z,101802.70
2018-08-10T21:24:09.866Z,101799.63
2018-08-10T21:29:20.023Z,101800.11
2018-08-10T21:34:29.474Z,101787.30
2018-08-10T21:39:38.884Z,101787.65
2018-08-10T21:44:48.359Z,101791.17
2018-08-10T21:49:58.099Z,101794.70
2018-08-10T21:55:07.615Z,101795.69
2018-08-10T22:00:28.437Z,101790.52
2018-08-10T22:05:37.446Z,101783.30
2018-08-10T22:10:46.767Z,101788.48
2018-08-10T22:15:57.516Z,101781.76
2018-08-10T22:21:06.510Z,101785.81
2018-08-10T22:26:15.807Z,101785.45
2018-08-10T22:31:24.712Z,101781.46
2018-08-10T22:36:34.240Z,101783.61
2018-08-10T22:41:43.614Z,101786.16
2018-08-10T22:46:53.141Z,101783.81
2018-08-10T22:52:02.239Z,101781.12
2018-08-10T22:57:11.596Z,101775.78
2018-08-10T23:02:20.600Z,101774.09
2018-08-10T23:07:29.260Z,101771.39
2018-08-10T23:12:38.436Z,101760.62
2018-08-10T23:17:47.590Z,101764.50
2018-08-10T23:22:56.546Z,101766.01
2018-08-10T23:28:05.704Z,101767.01
2018-08-10T23:33:15.099Z,101771.73
2018-08-10T23:38:26.573Z,101770.05
2018-08-10T23:43:35.551Z,101757.94
2018-08-10T23:48:44.765Z,101754.05
2018-08-10T23:53:54.077Z,101755.92
2018-08-10T23:59:03.177Z,101751.55
